sensor_id;sensor_type;location;lat;lon;timestamp;P1;durP1;ratioP1;P2;durP2;ratioP2
69188;SDS011;56302;52.322;5.926;2024-02-23T00:01:27;1.48;;;0.50;;
69188;SDS011;56302;52.322;5.926;2024-02-23T00:03:53;2.20;;;0.55;;
69188;SDS011;56302;52.322;5.926;2024-02-23T00:06:20;1.83;;;0.68;;
69188;SDS011;56302;52.322;5.926;2024-02-23T00:08:46;2.00;;;0.40;;
69188;SDS011;56302;52.322;5.926;2024-02-23T00:11:11;2.88;;;0.60;;
69188;SDS011;56302;52.322;5.926;2024-02-23T00:13:37;0.90;;;0.40;;
69188;SDS011;56302;52.322;5.926;2024-02-23T00:16:03;3.00;;;0.80;;
69188;SDS011;56302;52.322;5.926;2024-02-23T00:18:29;4.13;;;0.82;;
69188;SDS011;56302;52.322;5.926;2024-02-23T00:20:54;3.05;;;0.60;;
69188;SDS011;56302;52.322;5.926;2024-02-23T00:23:21;4.07;;;0.70;;
69188;SDS011;56302;52.322;5.926;2024-02-23T00:25:47;6.65;;;0.98;;
69188;SDS011;56302;52.322;5.926;2024-02-23T00:28:13;4.72;;;0.80;;
69188;SDS011;56302;52.322;5.926;2024-02-23T00:30:38;6.57;;;1.30;;
69188;SDS011;56302;52.322;5.926;2024-02-23T00:33:04;2.50;;;0.63;;
69188;SDS011;56302;52.322;5.926;2024-02-23T00:35:30;7.13;;;0.93;;
69188;SDS011;56302;52.322;5.926;2024-02-23T00:37:55;2.90;;;0.90;;
69188;SDS011;56302;52.322;5.926;2024-02-23T00:40:21;3.45;;;0.60;;
69188;SDS011;56302;52.322;5.926;2024-02-23T00:42:48;4.87;;;0.70;;
69188;SDS011;56302;52.322;5.926;2024-02-23T00:45:14;4.25;;;0.70;;
69188;SDS011;56302;52.322;5.926;2024-02-23T00:47:40;7.90;;;0.88;;
69188;SDS011;56302;52.322;5.926;2024-02-23T00:50:05;5.30;;;1.10;;
69188;SDS011;56302;52.322;5.926;2024-02-23T00:52:31;7.85;;;0.85;;
69188;SDS011;56302;52.322;5.926;2024-02-23T00:54:57;2.83;;;0.70;;
69188;SDS011;56302;52.322;5.926;2024-02-23T00:57:23;5.65;;;0.93;;
69188;SDS011;56302;52.322;5.926;2024-02-23T00:59:54;2.80;;;0.90;;
69188;SDS011;56302;52.322;5.926;2024-02-23T01:02:21;4.87;;;1.10;;
69188;SDS011;56302;52.322;5.926;2024-02-23T01:04:46;7.97;;;1.00;;
69188;SDS011;56302;52.322;5.926;2024-02-23T01:07:12;6.87;;;0.90;;
69188;SDS011;56302;52.322;5.926;2024-02-23T01:09:38;8.13;;;1.73;;
69188;SDS011;56302;52.322;5.926;2024-02-23T01:12:03;8.17;;;1.10;;
69188;SDS011;56302;52.322;5.926;2024-02-23T01:14:29;6.35;;;1.42;;
69188;SDS011;56302;52.322;5.926;2024-02-23T01:16:55;4.47;;;0.87;;
69188;SDS011;56302;52.322;5.926;2024-02-23T01:19:20;4.87;;;1.40;;
69188;SDS011;56302;52.322;5.926;2024-02-23T01:21:46;10.25;;;1.50;;
69188;SDS011;56302;52.322;5.926;2024-02-23T01:24:11;11.50;;;1.07;;
69188;SDS011;56302;52.322;5.926;2024-02-23T01:26:37;8.40;;;1.50;;
69188;SDS011;56302;52.322;5.926;2024-02-23T01:29:03;8.85;;;1.25;;
69188;SDS011;56302;52.322;5.926;2024-02-23T01:31:28;11.03;;;1.30;;
69188;SDS011;56302;52.322;5.926;2024-02-23T01:33:54;8.77;;;1.63;;
69188;SDS011;56302;52.322;5.926;2024-02-23T01:36:19;8.40;;;1.53;;
69188;SDS011;56302;52.322;5.926;2024-02-23T01:38:45;7.27;;;1.10;;
69188;SDS011;56302;52.322;5.926;2024-02-23T01:41:11;10.00;;;1.25;;
69188;SDS011;56302;52.322;5.926;2024-02-23T01:43:37;9.10;;;1.13;;
69188;SDS011;56302;52.322;5.926;2024-02-23T01:46:03;9.03;;;1.40;;
69188;SDS011;56302;52.322;5.926;2024-02-23T01:48:31;7.80;;;1.10;;
69188;SDS011;56302;52.322;5.926;2024-02-23T01:50:58;5.70;;;1.38;;
69188;SDS011;56302;52.322;5.926;2024-02-23T01:53:23;10.20;;;1.40;;
69188;SDS011;56302;52.322;5.926;2024-02-23T01:55:50;6.93;;;1.05;;
69188;SDS011;56302;52.322;5.926;2024-02-23T01:58:18;6.68;;;1.10;;
69188;SDS011;56302;52.322;5.926;2024-02-23T02:00:43;5.90;;;1.03;;
69188;SDS011;56302;52.322;5.926;2024-02-23T02:03:10;4.82;;;0.70;;
69188;SDS011;56302;52.322;5.926;2024-02-23T02:05:36;7.33;;;0.90;;
69188;SDS011;56302;52.322;5.926;2024-02-23T02:08:02;4.88;;;0.90;;
69188;SDS011;56302;52.322;5.926;2024-02-23T02:10:29;2.80;;;0.80;;
69188;SDS011;56302;52.322;5.926;2024-02-23T02:12:54;4.30;;;1.17;;
69188;SDS011;56302;52.322;5.926;2024-02-23T02:15:20;4.07;;;1.00;;
69188;SDS011;56302;52.322;5.926;2024-02-23T02:17:47;4.10;;;1.00;;
69188;SDS011;56302;52.322;5.926;2024-02-23T02:20:13;4.95;;;0.77;;
69188;SDS011;56302;52.322;5.926;2024-02-23T02:22:39;3.45;;;0.80;;
69188;SDS011;56302;52.322;5.926;2024-02-23T02:25:05;3.65;;;0.85;;
69188;SDS011;56302;52.322;5.926;2024-02-23T02:27:31;2.73;;;0.70;;
69188;SDS011;56302;52.322;5.926;2024-02-23T02:29:57;4.65;;;0.77;;
69188;SDS011;56302;52.322;5.926;2024-02-23T02:32:23;3.40;;;0.90;;
69188;SDS011;56302;52.322;5.926;2024-02-23T02:34:49;6.53;;;1.00;;
69188;SDS011;56302;52.322;5.926;2024-02-23T02:37:14;7.63;;;1.40;;
69188;SDS011;56302;52.322;5.926;2024-02-23T02:39:40;5.43;;;1.07;;
69188;SDS011;56302;52.322;5.926;2024-02-23T02:42:06;6.75;;;1.58;;
69188;SDS011;56302;52.322;5.926;2024-02-23T02:44:32;9.30;;;1.75;;
69188;SDS011;56302;52.322;5.926;2024-02-23T02:46:57;9.43;;;1.67;;
69188;SDS011;56302;52.322;5.926;2024-02-23T02:49:23;4.47;;;1.30;;
69188;SDS011;56302;52.322;5.926;2024-02-23T02:51:49;8.68;;;1.73;;
69188;SDS011;56302;52.322;5.926;2024-02-23T02:54:15;5.37;;;1.70;;
69188;SDS011;56302;52.322;5.926;2024-02-23T02:56:44;11.48;;;2.03;;
69188;SDS011;56302;52.322;5.926;2024-02-23T02:59:12;7.47;;;1.60;;
69188;SDS011;56302;52.322;5.926;2024-02-23T03:01:38;6.82;;;1.95;;
69188;SDS011;56302;52.322;5.926;2024-02-23T03:04:04;7.85;;;1.75;;
69188;SDS011;56302;52.322;5.926;2024-02-23T03:06:30;7.00;;;1.60;;
69188;SDS011;56302;52.322;5.926;2024-02-23T03:08:55;6.47;;;2.37;;
69188;SDS011;56302;52.322;5.926;2024-02-23T03:11:21;5.57;;;1.50;;
69188;SDS011;56302;52.322;5.926;2024-02-23T03:13:47;9.30;;;1.60;;
69188;SDS011;56302;52.322;5.926;2024-02-23T03:16:20;7.05;;;1.70;;
69188;SDS011;56302;52.322;5.926;2024-02-23T03:18:48;9.93;;;2.30;;
69188;SDS011;56302;52.322;5.926;2024-02-23T03:21:14;11.27;;;1.98;;
69188;SDS011;56302;52.322;5.926;2024-02-23T03:23:40;5.15;;;1.27;;
69188;SDS011;56302;52.322;5.926;2024-02-23T03:26:09;6.32;;;1.50;;
69188;SDS011;56302;52.322;5.926;2024-02-23T03:28:34;4.53;;;1.10;;
69188;SDS011;56302;52.322;5.926;2024-02-23T03:31:00;9.93;;;2.40;;
69188;SDS011;56302;52.322;5.926;2024-02-23T03:33:26;8.90;;;1.60;;
69188;SDS011;56302;52.322;5.926;2024-02-23T03:35:51;7.30;;;1.48;;
69188;SDS011;56302;52.322;5.926;2024-02-23T03:38:17;8.80;;;1.67;;
69188;SDS011;56302;52.322;5.926;2024-02-23T03:40:43;11.60;;;1.80;;
69188;SDS011;56302;52.322;5.926;2024-02-23T03:43:09;8.70;;;1.80;;
69188;SDS011;56302;52.322;5.926;2024-02-23T03:45:34;7.00;;;2.00;;
69188;SDS011;56302;52.322;5.926;2024-02-23T03:48:00;7.43;;;1.60;;
69188;SDS011;56302;52.322;5.926;2024-02-23T03:50:28;6.60;;;1.77;;
69188;SDS011;56302;52.322;5.926;2024-02-23T03:52:54;10.57;;;1.83;;
69188;SDS011;56302;52.322;5.926;2024-02-23T03:55:20;8.10;;;1.88;;
69188;SDS011;56302;52.322;5.926;2024-02-23T03:57:47;9.40;;;2.00;;
69188;SDS011;56302;52.322;5.926;2024-02-23T04:00:12;8.87;;;1.70;;
69188;SDS011;56302;52.322;5.926;2024-02-23T04:02:38;7.78;;;1.95;;
69188;SDS011;56302;52.322;5.926;2024-02-23T04:05:05;6.47;;;1.33;;
69188;SDS011;56302;52.322;5.926;2024-02-23T04:07:31;6.82;;;1.30;;
69188;SDS011;56302;52.322;5.926;2024-02-23T04:09:56;6.35;;;1.58;;
69188;SDS011;56302;52.322;5.926;2024-02-23T04:12:22;6.43;;;2.10;;
69188;SDS011;56302;52.322;5.926;2024-02-23T04:14:48;8.05;;;2.65;;
69188;SDS011;56302;52.322;5.926;2024-02-23T04:17:13;10.03;;;2.57;;
69188;SDS011;56302;52.322;5.926;2024-02-23T04:19:42;8.63;;;2.42;;
69188;SDS011;56302;52.322;5.926;2024-02-23T04:22:08;9.25;;;2.17;;
69188;SDS011;56302;52.322;5.926;2024-02-23T04:24:40;6.68;;;2.40;;
69188;SDS011;56302;52.322;5.926;2024-02-23T04:27:06;8.23;;;1.75;;
69188;SDS011;56302;52.322;5.926;2024-02-23T04:29:33;6.47;;;1.70;;
69188;SDS011;56302;52.322;5.926;2024-02-23T04:32:02;7.10;;;2.07;;
69188;SDS011;56302;52.322;5.926;2024-02-23T04:34:28;10.73;;;1.50;;
69188;SDS011;56302;52.322;5.926;2024-02-23T04:36:54;5.85;;;1.60;;
69188;SDS011;56302;52.322;5.926;2024-02-23T04:39:20;7.05;;;2.10;;
69188;SDS011;56302;52.322;5.926;2024-02-23T04:41:46;10.30;;;2.33;;
69188;SDS011;56302;52.322;5.926;2024-02-23T04:44:12;7.45;;;2.13;;
69188;SDS011;56302;52.322;5.926;2024-02-23T04:46:37;11.10;;;2.08;;
69188;SDS011;56302;52.322;5.926;2024-02-23T04:49:03;7.00;;;1.57;;
69188;SDS011;56302;52.322;5.926;2024-02-23T04:51:29;8.38;;;1.77;;
69188;SDS011;56302;52.322;5.926;2024-02-23T04:53:54;6.97;;;2.30;;
69188;SDS011;56302;52.322;5.926;2024-02-23T04:56:20;11.57;;;2.13;;
69188;SDS011;56302;52.322;5.926;2024-02-23T04:58:46;9.50;;;2.42;;
69188;SDS011;56302;52.322;5.926;2024-02-23T05:01:12;10.47;;;2.03;;
69188;SDS011;56302;52.322;5.926;2024-02-23T05:03:37;10.70;;;2.30;;
69188;SDS011;56302;52.322;5.926;2024-02-23T05:06:03;7.63;;;2.25;;
69188;SDS011;56302;52.322;5.926;2024-02-23T05:08:29;8.63;;;2.05;;
69188;SDS011;56302;52.322;5.926;2024-02-23T05:10:55;6.53;;;1.92;;
69188;SDS011;56302;52.322;5.926;2024-02-23T05:13:21;9.70;;;2.35;;
69188;SDS011;56302;52.322;5.926;2024-02-23T05:15:47;9.00;;;2.35;;
69188;SDS011;56302;52.322;5.926;2024-02-23T05:18:13;10.82;;;2.53;;
69188;SDS011;56302;52.322;5.926;2024-02-23T05:20:39;7.35;;;2.30;;
69188;SDS011;56302;52.322;5.926;2024-02-23T05:23:04;8.33;;;2.27;;
69188;SDS011;56302;52.322;5.926;2024-02-23T05:25:30;7.70;;;2.80;;
69188;SDS011;56302;52.322;5.926;2024-02-23T05:27:55;6.77;;;2.50;;
69188;SDS011;56302;52.322;5.926;2024-02-23T05:30:21;7.00;;;2.72;;
69188;SDS011;56302;52.322;5.926;2024-02-23T05:32:47;12.13;;;3.03;;
69188;SDS011;56302;52.322;5.926;2024-02-23T05:35:13;15.07;;;2.60;;
69188;SDS011;56302;52.322;5.926;2024-02-23T05:37:40;9.07;;;2.23;;
69188;SDS011;56302;52.322;5.926;2024-02-23T05:40:06;11.30;;;2.33;;
69188;SDS011;56302;52.322;5.926;2024-02-23T05:42:35;14.63;;;2.75;;
69188;SDS011;56302;52.322;5.926;2024-02-23T05:45:01;12.98;;;2.78;;
69188;SDS011;56302;52.322;5.926;2024-02-23T05:47:29;7.80;;;2.75;;
69188;SDS011;56302;52.322;5.926;2024-02-23T05:49:55;9.40;;;2.83;;
69188;SDS011;56302;52.322;5.926;2024-02-23T05:52:21;7.68;;;2.83;;
69188;SDS011;56302;52.322;5.926;2024-02-23T05:54:47;7.97;;;2.60;;
69188;SDS011;56302;52.322;5.926;2024-02-23T05:57:12;9.77;;;2.75;;
69188;SDS011;56302;52.322;5.926;2024-02-23T05:59:38;6.57;;;2.43;;
69188;SDS011;56302;52.322;5.926;2024-02-23T06:02:04;8.67;;;2.73;;
69188;SDS011;56302;52.322;5.926;2024-02-23T06:04:29;5.10;;;1.90;;
69188;SDS011;56302;52.322;5.926;2024-02-23T06:06:55;8.87;;;2.20;;
69188;SDS011;56302;52.322;5.926;2024-02-23T06:09:20;6.35;;;2.00;;
69188;SDS011;56302;52.322;5.926;2024-02-23T06:11:46;11.10;;;2.60;;
69188;SDS011;56302;52.322;5.926;2024-02-23T06:14:12;10.30;;;2.60;;
69188;SDS011;56302;52.322;5.926;2024-02-23T06:16:38;7.63;;;2.57;;
69188;SDS011;56302;52.322;5.926;2024-02-23T06:19:03;8.98;;;2.40;;
69188;SDS011;56302;52.322;5.926;2024-02-23T06:21:29;4.67;;;1.83;;
69188;SDS011;56302;52.322;5.926;2024-02-23T06:23:55;6.40;;;2.20;;
69188;SDS011;56302;52.322;5.926;2024-02-23T06:26:20;7.53;;;1.85;;
69188;SDS011;56302;52.322;5.926;2024-02-23T06:28:46;6.88;;;1.90;;
69188;SDS011;56302;52.322;5.926;2024-02-23T06:31:14;5.53;;;1.65;;
69188;SDS011;56302;52.322;5.926;2024-02-23T06:33:39;8.73;;;1.90;;
69188;SDS011;56302;52.322;5.926;2024-02-23T06:36:08;6.30;;;1.83;;
69188;SDS011;56302;52.322;5.926;2024-02-23T06:38:34;3.85;;;1.30;;
69188;SDS011;56302;52.322;5.926;2024-02-23T06:41:00;8.10;;;1.60;;
69188;SDS011;56302;52.322;5.926;2024-02-23T06:43:25;7.70;;;1.80;;
69188;SDS011;56302;52.322;5.926;2024-02-23T06:45:51;4.90;;;1.30;;
69188;SDS011;56302;52.322;5.926;2024-02-23T06:48:17;7.03;;;1.60;;
69188;SDS011;56302;52.322;5.926;2024-02-23T06:50:43;8.63;;;1.80;;
69188;SDS011;56302;52.322;5.926;2024-02-23T06:53:09;8.70;;;1.45;;
69188;SDS011;56302;52.322;5.926;2024-02-23T06:55:34;6.20;;;1.60;;
69188;SDS011;56302;52.322;5.926;2024-02-23T06:58:00;7.15;;;1.20;;
69188;SDS011;56302;52.322;5.926;2024-02-23T07:00:26;5.50;;;1.10;;
69188;SDS011;56302;52.322;5.926;2024-02-23T07:02:52;6.05;;;1.55;;
69188;SDS011;56302;52.322;5.926;2024-02-23T07:05:17;6.20;;;1.77;;
69188;SDS011;56302;52.322;5.926;2024-02-23T07:07:43;4.55;;;1.10;;
69188;SDS011;56302;52.322;5.926;2024-02-23T07:10:09;6.40;;;1.80;;
69188;SDS011;56302;52.322;5.926;2024-02-23T07:12:37;5.43;;;1.17;;
69188;SDS011;56302;52.322;5.926;2024-02-23T07:15:02;5.55;;;0.98;;
69188;SDS011;56302;52.322;5.926;2024-02-23T07:17:28;4.83;;;1.17;;
69188;SDS011;56302;52.322;5.926;2024-02-23T07:19:54;6.15;;;1.13;;
69188;SDS011;56302;52.322;5.926;2024-02-23T07:22:26;7.47;;;1.47;;
69188;SDS011;56302;52.322;5.926;2024-02-23T07:24:52;5.15;;;1.20;;
69188;SDS011;56302;52.322;5.926;2024-02-23T07:27:17;9.50;;;1.60;;
69188;SDS011;56302;52.322;5.926;2024-02-23T07:29:43;9.40;;;1.55;;
69188;SDS011;56302;52.322;5.926;2024-02-23T07:32:09;8.27;;;1.40;;
69188;SDS011;56302;52.322;5.926;2024-02-23T07:34:35;4.82;;;1.38;;
69188;SDS011;56302;52.322;5.926;2024-02-23T07:37:00;4.80;;;1.40;;
69188;SDS011;56302;52.322;5.926;2024-02-23T07:39:26;7.13;;;1.23;;
69188;SDS011;56302;52.322;5.926;2024-02-23T07:41:53;8.47;;;1.33;;
69188;SDS011;56302;52.322;5.926;2024-02-23T07:44:19;3.75;;;1.13;;
69188;SDS011;56302;52.322;5.926;2024-02-23T07:46:44;4.40;;;1.27;;
69188;SDS011;56302;52.322;5.926;2024-02-23T07:49:10;6.97;;;1.10;;
69188;SDS011;56302;52.322;5.926;2024-02-23T07:51:35;5.03;;;1.30;;
69188;SDS011;56302;52.322;5.926;2024-02-23T07:54:01;6.17;;;1.40;;
69188;SDS011;56302;52.322;5.926;2024-02-23T07:56:27;5.65;;;1.35;;
69188;SDS011;56302;52.322;5.926;2024-02-23T07:58:53;5.32;;;1.33;;
69188;SDS011;56302;52.322;5.926;2024-02-23T08:01:19;6.00;;;0.90;;
69188;SDS011;56302;52.322;5.926;2024-02-23T08:03:45;5.75;;;1.15;;
69188;SDS011;56302;52.322;5.926;2024-02-23T08:06:10;7.80;;;1.47;;
69188;SDS011;56302;52.322;5.926;2024-02-23T08:08:37;7.90;;;1.33;;
69188;SDS011;56302;52.322;5.926;2024-02-23T08:11:03;7.50;;;1.30;;
69188;SDS011;56302;52.322;5.926;2024-02-23T08:13:29;8.05;;;1.73;;
69188;SDS011;56302;52.322;5.926;2024-02-23T08:15:56;10.45;;;1.13;;
69188;SDS011;56302;52.322;5.926;2024-02-23T08:18:25;7.57;;;1.40;;
69188;SDS011;56302;52.322;5.926;2024-02-23T08:20:51;6.57;;;1.13;;
69188;SDS011;56302;52.322;5.926;2024-02-23T08:23:17;7.82;;;1.00;;
69188;SDS011;56302;52.322;5.926;2024-02-23T08:25:44;6.43;;;0.85;;
69188;SDS011;56302;52.322;5.926;2024-02-23T08:28:09;5.70;;;1.20;;
69188;SDS011;56302;52.322;5.926;2024-02-23T08:30:35;7.22;;;1.17;;
69188;SDS011;56302;52.322;5.926;2024-02-23T08:33:00;5.75;;;1.08;;
69188;SDS011;56302;52.322;5.926;2024-02-23T08:35:26;10.20;;;1.30;;
69188;SDS011;56302;52.322;5.926;2024-02-23T08:37:52;4.82;;;0.98;;
69188;SDS011;56302;52.322;5.926;2024-02-23T08:40:17;5.30;;;1.20;;
69188;SDS011;56302;52.322;5.926;2024-02-23T08:42:43;8.47;;;1.50;;
69188;SDS011;56302;52.322;5.926;2024-02-23T08:45:09;6.20;;;1.17;;
69188;SDS011;56302;52.322;5.926;2024-02-23T08:47:37;6.10;;;1.50;;
69188;SDS011;56302;52.322;5.926;2024-02-23T08:50:03;5.57;;;0.83;;
69188;SDS011;56302;52.322;5.926;2024-02-23T08:52:29;6.93;;;1.25;;
69188;SDS011;56302;52.322;5.926;2024-02-23T08:54:55;5.30;;;1.10;;
69188;SDS011;56302;52.322;5.926;2024-02-23T08:57:21;3.70;;;0.80;;
69188;SDS011;56302;52.322;5.926;2024-02-23T08:59:48;6.10;;;1.02;;
69188;SDS011;56302;52.322;5.926;2024-02-23T09:02:16;5.10;;;1.50;;
69188;SDS011;56302;52.322;5.926;2024-02-23T09:04:42;10.33;;;1.53;;
69188;SDS011;56302;52.322;5.926;2024-02-23T09:07:09;4.55;;;1.05;;
69188;SDS011;56302;52.322;5.926;2024-02-23T09:09:35;5.15;;;1.40;;
69188;SDS011;56302;52.322;5.926;2024-02-23T09:12:01;7.43;;;1.03;;
69188;SDS011;56302;52.322;5.926;2024-02-23T09:14:27;6.30;;;0.98;;
69188;SDS011;56302;52.322;5.926;2024-02-23T09:16:52;5.43;;;1.33;;
69188;SDS011;56302;52.322;5.926;2024-02-23T09:19:18;7.95;;;1.40;;
69188;SDS011;56302;52.322;5.926;2024-02-23T09:21:45;8.20;;;1.20;;
69188;SDS011;56302;52.322;5.926;2024-02-23T09:24:11;6.03;;;1.27;;
69188;SDS011;56302;52.322;5.926;2024-02-23T09:26:36;7.80;;;1.37;;
69188;SDS011;56302;52.322;5.926;2024-02-23T09:29:02;6.18;;;1.00;;
69188;SDS011;56302;52.322;5.926;2024-02-23T09:31:28;8.97;;;1.60;;
69188;SDS011;56302;52.322;5.926;2024-02-23T09:33:54;9.20;;;1.00;;
69188;SDS011;56302;52.322;5.926;2024-02-23T09:36:21;6.75;;;1.08;;
69188;SDS011;56302;52.322;5.926;2024-02-23T09:38:47;6.10;;;1.07;;
69188;SDS011;56302;52.322;5.926;2024-02-23T09:41:19;6.28;;;1.00;;
69188;SDS011;56302;52.322;5.926;2024-02-23T09:43:47;3.30;;;0.93;;
69188;SDS011;56302;52.322;5.926;2024-02-23T09:46:17;4.63;;;0.98;;
69188;SDS011;56302;52.322;5.926;2024-02-23T09:48:43;6.47;;;0.70;;
69188;SDS011;56302;52.322;5.926;2024-02-23T09:51:10;6.03;;;0.90;;
69188;SDS011;56302;52.322;5.926;2024-02-23T09:53:38;6.60;;;1.25;;
69188;SDS011;56302;52.322;5.926;2024-02-23T09:56:04;5.57;;;0.90;;
69188;SDS011;56302;52.322;5.926;2024-02-23T09:58:31;6.70;;;0.93;;
69188;SDS011;56302;52.322;5.926;2024-02-23T10:00:58;5.13;;;1.23;;
69188;SDS011;56302;52.322;5.926;2024-02-23T10:03:27;8.10;;;1.58;;
69188;SDS011;56302;52.322;5.926;2024-02-23T10:05:58;5.93;;;1.00;;
69188;SDS011;56302;52.322;5.926;2024-02-23T10:08:27;6.00;;;1.10;;
69188;SDS011;56302;52.322;5.926;2024-02-23T10:10:54;6.78;;;1.30;;
69188;SDS011;56302;52.322;5.926;2024-02-23T10:13:21;5.30;;;1.00;;
69188;SDS011;56302;52.322;5.926;2024-02-23T10:15:49;5.90;;;0.90;;
69188;SDS011;56302;52.322;5.926;2024-02-23T10:18:15;7.43;;;1.30;;
69188;SDS011;56302;52.322;5.926;2024-02-23T10:20:41;4.40;;;1.25;;
69188;SDS011;56302;52.322;5.926;2024-02-23T10:23:07;8.80;;;1.43;;
69188;SDS011;56302;52.322;5.926;2024-02-23T10:25:33;7.53;;;0.93;;
69188;SDS011;56302;52.322;5.926;2024-02-23T10:28:03;6.03;;;0.90;;
69188;SDS011;56302;52.322;5.926;2024-02-23T10:30:30;5.72;;;1.17;;
69188;SDS011;56302;52.322;5.926;2024-02-23T10:32:56;8.50;;;1.10;;
69188;SDS011;56302;52.322;5.926;2024-02-23T10:35:23;8.65;;;1.00;;
69188;SDS011;56302;52.322;5.926;2024-02-23T10:37:50;3.78;;;0.90;;
69188;SDS011;56302;52.322;5.926;2024-02-23T10:40:18;5.78;;;1.00;;
69188;SDS011;56302;52.322;5.926;2024-02-23T10:42:45;4.40;;;1.15;;
69188;SDS011;56302;52.322;5.926;2024-02-23T10:45:19;4.83;;;0.90;;
69188;SDS011;56302;52.322;5.926;2024-02-23T10:47:48;4.05;;;1.00;;
69188;SDS011;56302;52.322;5.926;2024-02-23T10:50:15;4.22;;;1.10;;
69188;SDS011;56302;52.322;5.926;2024-02-23T10:52:44;5.15;;;1.08;;
69188;SDS011;56302;52.322;5.926;2024-02-23T10:55:10;5.00;;;1.10;;
69188;SDS011;56302;52.322;5.926;2024-02-23T10:57:36;3.40;;;0.90;;
69188;SDS011;56302;52.322;5.926;2024-02-23T11:00:03;4.50;;;1.10;;
69188;SDS011;56302;52.322;5.926;2024-02-23T11:02:31;5.07;;;0.80;;
69188;SDS011;56302;52.322;5.926;2024-02-23T11:04:59;4.13;;;1.40;;
69188;SDS011;56302;52.322;5.926;2024-02-23T11:07:25;5.43;;;0.93;;
69188;SDS011;56302;52.322;5.926;2024-02-23T11:09:53;7.78;;;1.40;;
69188;SDS011;56302;52.322;5.926;2024-02-23T11:12:22;2.67;;;0.90;;
69188;SDS011;56302;52.322;5.926;2024-02-23T11:14:51;2.78;;;0.70;;
69188;SDS011;56302;52.322;5.926;2024-02-23T11:17:21;8.30;;;1.60;;
69188;SDS011;56302;52.322;5.926;2024-02-23T11:19:49;5.25;;;1.20;;
69188;SDS011;56302;52.322;5.926;2024-02-23T11:22:20;3.13;;;0.90;;
69188;SDS011;56302;52.322;5.926;2024-02-23T11:24:50;5.65;;;1.00;;
69188;SDS011;56302;52.322;5.926;2024-02-23T11:27:15;7.60;;;1.00;;
69188;SDS011;56302;52.322;5.926;2024-02-23T11:29:47;7.57;;;1.00;;
69188;SDS011;56302;52.322;5.926;2024-02-23T11:32:16;5.25;;;1.10;;
69188;SDS011;56302;52.322;5.926;2024-02-23T11:34:54;5.20;;;0.95;;
69188;SDS011;56302;52.322;5.926;2024-02-23T11:37:23;7.13;;;1.30;;
69188;SDS011;56302;52.322;5.926;2024-02-23T11:39:48;4.33;;;0.83;;
69188;SDS011;56302;52.322;5.926;2024-02-23T11:42:14;5.50;;;1.27;;
69188;SDS011;56302;52.322;5.926;2024-02-23T11:44:40;9.63;;;1.00;;
69188;SDS011;56302;52.322;5.926;2024-02-23T11:47:06;4.32;;;1.10;;
69188;SDS011;56302;52.322;5.926;2024-02-23T11:49:32;5.15;;;1.08;;
69188;SDS011;56302;52.322;5.926;2024-02-23T11:51:58;4.77;;;0.80;;
69188;SDS011;56302;52.322;5.926;2024-02-23T11:54:24;7.05;;;1.48;;
69188;SDS011;56302;52.322;5.926;2024-02-23T11:56:50;5.37;;;1.10;;
69188;SDS011;56302;52.322;5.926;2024-02-23T11:59:17;3.22;;;0.82;;
69188;SDS011;56302;52.322;5.926;2024-02-23T12:01:45;4.07;;;1.10;;
69188;SDS011;56302;52.322;5.926;2024-02-23T12:04:12;6.55;;;1.05;;
69188;SDS011;56302;52.322;5.926;2024-02-23T12:06:39;3.47;;;1.10;;
69188;SDS011;56302;52.322;5.926;2024-02-23T12:09:05;7.07;;;1.40;;
69188;SDS011;56302;52.322;5.926;2024-02-23T12:11:31;4.45;;;1.30;;
69188;SDS011;56302;52.322;5.926;2024-02-23T12:13:57;8.30;;;1.30;;
69188;SDS011;56302;52.322;5.926;2024-02-23T12:16:22;3.20;;;0.93;;
69188;SDS011;56302;52.322;5.926;2024-02-23T12:18:54;6.97;;;1.30;;
69188;SDS011;56302;52.322;5.926;2024-02-23T12:21:21;5.65;;;1.10;;
69188;SDS011;56302;52.322;5.926;2024-02-23T12:23:48;5.10;;;1.42;;
69188;SDS011;56302;52.322;5.926;2024-02-23T12:26:18;5.15;;;1.08;;
69188;SDS011;56302;52.322;5.926;2024-02-23T12:28:44;5.60;;;1.23;;
69188;SDS011;56302;52.322;5.926;2024-02-23T12:31:10;4.50;;;1.23;;
69188;SDS011;56302;52.322;5.926;2024-02-23T12:33:39;3.55;;;1.20;;
69188;SDS011;56302;52.322;5.926;2024-02-23T12:36:06;4.40;;;1.30;;
69188;SDS011;56302;52.322;5.926;2024-02-23T12:38:32;5.25;;;1.30;;
69188;SDS011;56302;52.322;5.926;2024-02-23T12:40:59;3.22;;;1.05;;
69188;SDS011;56302;52.322;5.926;2024-02-23T12:43:26;4.10;;;1.17;;
69188;SDS011;56302;52.322;5.926;2024-02-23T12:45:52;3.97;;;1.15;;
69188;SDS011;56302;52.322;5.926;2024-02-23T12:48:19;5.22;;;1.08;;
69188;SDS011;56302;52.322;5.926;2024-02-23T12:50:46;4.03;;;1.52;;
69188;SDS011;56302;52.322;5.926;2024-02-23T12:56:03;7.07;;;1.40;;
69188;SDS011;56302;52.322;5.926;2024-02-23T12:58:30;8.37;;;1.53;;
69188;SDS011;56302;52.322;5.926;2024-02-23T13:00:57;5.28;;;1.10;;
69188;SDS011;56302;52.322;5.926;2024-02-23T13:03:23;5.82;;;1.70;;
69188;SDS011;56302;52.322;5.926;2024-02-23T13:05:50;5.72;;;1.05;;
69188;SDS011;56302;52.322;5.926;2024-02-23T13:08:16;7.70;;;1.30;;
69188;SDS011;56302;52.322;5.926;2024-02-23T13:10:43;6.05;;;1.40;;
69188;SDS011;56302;52.322;5.926;2024-02-23T13:13:08;6.57;;;1.58;;
69188;SDS011;56302;52.322;5.926;2024-02-23T13:15:34;5.40;;;1.37;;
69188;SDS011;56302;52.322;5.926;2024-02-23T13:18:02;5.15;;;1.25;;
69188;SDS011;56302;52.322;5.926;2024-02-23T13:20:28;6.43;;;1.67;;
69188;SDS011;56302;52.322;5.926;2024-02-23T13:22:54;9.07;;;1.50;;
69188;SDS011;56302;52.322;5.926;2024-02-23T13:25:21;7.97;;;1.40;;
69188;SDS011;56302;52.322;5.926;2024-02-23T13:27:46;4.40;;;1.42;;
69188;SDS011;56302;52.322;5.926;2024-02-23T13:30:12;4.67;;;1.40;;
69188;SDS011;56302;52.322;5.926;2024-02-23T13:32:38;4.03;;;1.02;;
69188;SDS011;56302;52.322;5.926;2024-02-23T13:35:04;4.43;;;1.20;;
69188;SDS011;56302;52.322;5.926;2024-02-23T13:37:31;4.50;;;1.05;;
69188;SDS011;56302;52.322;5.926;2024-02-23T13:39:57;7.68;;;1.80;;
69188;SDS011;56302;52.322;5.926;2024-02-23T13:42:23;6.32;;;1.38;;
69188;SDS011;56302;52.322;5.926;2024-02-23T13:44:48;8.20;;;1.73;;
69188;SDS011;56302;52.322;5.926;2024-02-23T13:47:14;4.17;;;1.20;;
69188;SDS011;56302;52.322;5.926;2024-02-23T13:49:40;11.23;;;1.63;;
69188;SDS011;56302;52.322;5.926;2024-02-23T13:52:05;6.40;;;1.00;;
69188;SDS011;56302;52.322;5.926;2024-02-23T13:54:31;5.47;;;1.30;;
69188;SDS011;56302;52.322;5.926;2024-02-23T13:56:56;4.78;;;0.93;;
69188;SDS011;56302;52.322;5.926;2024-02-23T13:59:22;6.87;;;1.37;;
69188;SDS011;56302;52.322;5.926;2024-02-23T14:01:48;5.43;;;1.10;;
69188;SDS011;56302;52.322;5.926;2024-02-23T14:04:13;7.07;;;1.33;;
69188;SDS011;56302;52.322;5.926;2024-02-23T14:06:39;6.00;;;1.27;;
69188;SDS011;56302;52.322;5.926;2024-02-23T14:09:05;5.28;;;1.13;;
69188;SDS011;56302;52.322;5.926;2024-02-23T14:11:31;5.53;;;1.10;;
69188;SDS011;56302;52.322;5.926;2024-02-23T14:13:57;4.87;;;0.83;;
69188;SDS011;56302;52.322;5.926;2024-02-23T14:16:23;3.53;;;0.85;;
69188;SDS011;56302;52.322;5.926;2024-02-23T14:18:49;5.87;;;1.13;;
69188;SDS011;56302;52.322;5.926;2024-02-23T14:21:15;6.18;;;1.20;;
69188;SDS011;56302;52.322;5.926;2024-02-23T14:23:41;5.30;;;0.93;;
69188;SDS011;56302;52.322;5.926;2024-02-23T14:26:07;7.05;;;1.58;;
69188;SDS011;56302;52.322;5.926;2024-02-23T14:28:34;6.03;;;1.30;;
69188;SDS011;56302;52.322;5.926;2024-02-23T14:31:00;7.82;;;1.60;;
69188;SDS011;56302;52.322;5.926;2024-02-23T14:33:26;3.83;;;1.00;;
69188;SDS011;56302;52.322;5.926;2024-02-23T14:35:51;4.00;;;1.02;;
69188;SDS011;56302;52.322;5.926;2024-02-23T14:38:17;4.60;;;1.20;;
69188;SDS011;56302;52.322;5.926;2024-02-23T14:40:43;5.45;;;1.70;;
69188;SDS011;56302;52.322;5.926;2024-02-23T14:43:09;5.07;;;0.95;;